createdAt,value
2019-03-01T00:01:31.570Z,40.97
2019-03-01T00:03:07.022Z,42.13
2019-03-01T00:04:55.571Z,41.45
2019-03-01T00:07:06.018Z,37.27
2019-03-01T00:09:32.462Z,39.20
2019-03-01T00:11:21.001Z,33.30
2019-03-01T00:13:29.053Z,35.45
2019-03-01T00:15:29.847Z,40.23
2019-03-01T00:17:21.453Z,42.97
2019-03-01T00:19:13.185Z,40.93
2019-03-01T00:21:33.739Z,48.45
2019-03-01T00:23:34.319Z,49.33
2019-03-01T00:25:35.075Z,44.75
2019-03-01T00:27:42.048Z,42.35
2019-03-01T00:29:49.006Z,42.80
2019-03-01T00:31:46.488Z,44.00
2019-03-01T00:33:32.086Z,45.33
2019-03-01T00:35:15.068Z,45.77
2019-03-01T00:36:57.589Z,40.50
2019-03-01T00:38:43.751Z,44.23
2019-03-01T00:40:29.001Z,36.03
2019-03-01T00:42:42.470Z,37.70
2019-03-01T00:44:42.289Z,36.33
2019-03-01T00:46:17.912Z,34.27
2019-03-01T00:47:53.289Z,47.67
2019-03-01T00:49:30.328Z,39.60
2019-03-01T00:51:05.707Z,42.23
2019-03-01T00:52:41.096Z,49.13
2019-03-01T00:54:16.825Z,49.73
2019-03-01T00:55:52.198Z,51.37
2019-03-01T00:57:27.573Z,46.43
2019-03-01T00:59:02.953Z,47.37
2019-03-01T01:00:43.538Z,47.20
2019-03-01T01:02:18.909Z,49.45
2019-03-01T01:03:54.562Z,46.47
2019-03-01T01:05:29.938Z,41.93
2019-03-01T01:07:05.391Z,43.90
2019-03-01T01:08:40.774Z,41.42
2019-03-01T01:10:16.225Z,42.83
2019-03-01T01:11:51.604Z,42.80
2019-03-01T01:13:27.051Z,47.90
2019-03-01T01:15:03.010Z,44.00
2019-03-01T01:16:38.449Z,41.47
2019-03-01T01:18:13.824Z,36.80
2019-03-01T01:19:49.548Z,37.93
2019-03-01T01:21:25.290Z,48.07
2019-03-01T01:23:00.667Z,44.43
2019-03-01T01:24:36.368Z,44.53
2019-03-01T01:26:11.739Z,48.67
2019-03-01T01:27:47.116Z,50.33
2019-03-01T01:29:22.753Z,44.23
2019-03-01T01:30:58.124Z,48.80
2019-03-01T01:32:33.504Z,49.77
2019-03-01T01:34:08.890Z,46.63
2019-03-01T01:35:44.270Z,51.58
2019-03-01T01:37:19.649Z,53.55
2019-03-01T01:38:55.039Z,52.37
2019-03-01T01:40:30.421Z,52.90
2019-03-01T01:42:05.872Z,50.33
2019-03-01T01:43:41.263Z,45.03
2019-03-01T01:45:16.653Z,47.55
2019-03-01T01:46:52.023Z,48.73
2019-03-01T01:48:27.547Z,51.53
2019-03-01T01:50:04.727Z,50.35
2019-03-01T01:51:40.099Z,52.00
2019-03-01T01:53:15.481Z,44.90
2019-03-01T01:54:50.867Z,48.17
2019-03-01T01:56:26.317Z,48.27
2019-03-01T01:58:01.697Z,50.57
2019-03-01T01:59:37.075Z,46.37
2019-03-01T02:01:12.446Z,39.08
2019-03-01T02:02:47.829Z,45.43
2019-03-01T02:04:23.225Z,49.57
2019-03-01T02:05:58.758Z,45.50
2019-03-01T02:07:34.135Z,43.93
2019-03-01T02:09:21.886Z,49.08
2019-03-01T02:10:57.400Z,44.07
2019-03-01T02:12:33.908Z,41.33
2019-03-01T02:14:09.565Z,44.20
2019-03-01T02:15:44.933Z,42.27
2019-03-01T02:17:20.311Z,44.85
2019-03-01T02:18:57.913Z,39.97
2019-03-01T02:20:34.162Z,38.28
2019-03-01T02:22:10.601Z,40.53
2019-03-01T02:23:45.979Z,41.48
2019-03-01T02:25:21.936Z,42.05
2019-03-01T02:27:20.768Z,45.70
2019-03-01T02:28:56.152Z,47.20
2019-03-01T02:30:38.468Z,39.10
2019-03-01T02:32:14.816Z,41.42
2019-03-01T02:33:50.213Z,43.52
2019-03-01T02:35:25.595Z,44.07
2019-03-01T02:37:00.963Z,44.70
2019-03-01T02:38:36.343Z,46.20
2019-03-01T02:40:14.904Z,43.30
2019-03-01T02:41:50.275Z,41.13
2019-03-01T02:43:25.648Z,41.47
2019-03-01T02:45:01.044Z,37.80
2019-03-01T02:46:37.486Z,44.47
2019-03-01T02:48:12.865Z,38.47
2019-03-01T02:49:48.301Z,40.30
2019-03-01T02:51:23.705Z,44.53
2019-03-01T02:52:59.168Z,44.63
2019-03-01T02:54:34.551Z,41.77
2019-03-01T02:56:09.923Z,39.90
2019-03-01T02:57:45.681Z,42.05
2019-03-01T02:59:21.426Z,39.67
2019-03-01T03:00:56.799Z,47.33
2019-03-01T03:02:32.180Z,45.83
2019-03-01T03:04:07.561Z,44.23
2019-03-01T03:06:00.644Z,44.20
2019-03-01T03:07:37.652Z,41.00
2019-03-01T03:09:13.198Z,35.90
2019-03-01T03:10:48.595Z,42.25
2019-03-01T03:12:23.958Z,42.07
2019-03-01T03:13:59.355Z,40.47
2019-03-01T03:15:39.118Z,40.60
2019-03-01T03:17:14.494Z,46.10
2019-03-01T03:18:49.868Z,42.47
2019-03-01T03:20:25.257Z,43.33
2019-03-01T03:22:00.638Z,41.10
2019-03-01T03:23:37.052Z,46.87
2019-03-01T03:25:15.830Z,50.03
2019-03-01T03:26:51.230Z,46.10
2019-03-01T03:28:26.580Z,43.67
2019-03-01T03:30:01.974Z,42.73
2019-03-01T03:31:37.422Z,40.07
2019-03-01T03:33:12.889Z,44.23
2019-03-01T03:34:48.261Z,49.40
2019-03-01T03:36:23.632Z,45.47
2019-03-01T03:37:59.012Z,45.17
2019-03-01T03:39:34.869Z,45.83
2019-03-01T03:41:10.251Z,43.57
2019-03-01T03:42:45.621Z,36.43
2019-03-01T03:44:20.999Z,34.65
2019-03-01T03:45:56.376Z,35.57
2019-03-01T03:47:32.085Z,35.63
2019-03-01T03:49:07.459Z,38.20
2019-03-01T03:50:42.848Z,35.23
2019-03-01T03:52:18.493Z,35.15
2019-03-01T03:53:54.142Z,33.90
2019-03-01T03:55:30.561Z,38.50
2019-03-01T03:57:06.070Z,40.10
2019-03-01T03:58:41.484Z,42.23
2019-03-01T04:00:24.688Z,38.13
2019-03-01T04:02:00.055Z,43.27
2019-03-01T04:03:35.435Z,42.30
2019-03-01T04:05:11.508Z,38.10
2019-03-01T04:06:47.109Z,38.13
2019-03-01T04:08:22.482Z,42.97
2019-03-01T04:09:57.893Z,37.93
2019-03-01T04:11:33.244Z,35.73
2019-03-01T04:13:08.623Z,35.23
2019-03-01T04:14:44.342Z,40.80
2019-03-01T04:16:19.730Z,44.58
2019-03-01T04:17:55.106Z,41.37
2019-03-01T04:19:31.457Z,34.00
2019-03-01T04:21:06.843Z,35.70
2019-03-01T04:22:42.294Z,38.30
2019-03-01T04:24:17.658Z,37.57
2019-03-01T04:25:53.045Z,38.75
2019-03-01T04:27:28.418Z,42.63
2019-03-01T04:29:03.792Z,41.60
2019-03-01T04:30:39.174Z,39.10
2019-03-01T04:32:14.544Z,41.10
2019-03-01T04:33:49.936Z,39.00
2019-03-01T04:35:25.685Z,35.70
2019-03-01T04:37:01.318Z,41.13
2019-03-01T04:38:36.689Z,37.87
2019-03-01T04:40:14.802Z,39.27
2019-03-01T04:41:50.454Z,40.67
2019-03-01T04:43:25.834Z,40.00
2019-03-01T04:45:01.216Z,42.83
2019-03-01T04:46:36.970Z,41.17
2019-03-01T04:48:12.613Z,36.05
2019-03-01T04:49:47.990Z,31.73
2019-03-01T04:51:23.374Z,39.55
2019-03-01T04:52:58.756Z,39.53
2019-03-01T04:54:34.386Z,43.17
2019-03-01T04:56:09.775Z,36.00
2019-03-01T04:57:45.157Z,41.03
2019-03-01T04:59:20.527Z,36.77
2019-03-01T05:00:56.236Z,41.15
2019-03-01T05:02:31.641Z,40.75
2019-03-01T05:04:07.006Z,36.47
2019-03-01T05:05:42.397Z,41.87
2019-03-01T05:07:17.779Z,37.97
2019-03-01T05:08:53.155Z,38.57
2019-03-01T05:10:28.838Z,35.83
2019-03-01T05:12:04.215Z,37.20
2019-03-01T05:13:40.120Z,34.20
2019-03-01T05:15:21.489Z,39.80
2019-03-01T05:16:56.916Z,38.23
2019-03-01T05:18:32.295Z,37.17
2019-03-01T05:20:08.334Z,36.93
2019-03-01T05:21:43.719Z,34.20
2019-03-01T05:23:19.119Z,34.10
2019-03-01T05:24:54.841Z,34.07
2019-03-01T05:26:30.225Z,32.80
2019-03-01T05:28:05.609Z,38.77
2019-03-01T05:29:41.063Z,40.80
2019-03-01T05:31:16.454Z,36.13
2019-03-01T05:32:51.845Z,35.70
2019-03-01T05:34:27.266Z,32.78
2019-03-01T05:36:02.652Z,32.17
2019-03-01T05:37:38.025Z,36.53
2019-03-01T05:39:13.402Z,34.33
2019-03-01T05:40:48.798Z,38.73
2019-03-01T05:42:24.185Z,35.85
2019-03-01T05:43:59.565Z,33.07
2019-03-01T05:45:34.957Z,35.60
2019-03-01T05:47:10.338Z,37.80
2019-03-01T05:48:45.705Z,36.27
2019-03-01T05:50:21.082Z,29.90
2019-03-01T05:51:56.468Z,34.05
2019-03-01T05:53:31.857Z,34.00
2019-03-01T05:55:09.948Z,36.40
2019-03-01T05:56:45.333Z,35.80
2019-03-01T05:58:33.585Z,35.20
2019-03-01T06:00:11.167Z,28.80
2019-03-01T06:02:15.559Z,26.10
2019-03-01T06:04:18.313Z,28.25
2019-03-01T06:05:54.331Z,29.77
2019-03-01T06:07:37.112Z,24.43
2019-03-01T06:09:28.936Z,28.40
2019-03-01T06:11:08.813Z,24.55
2019-03-01T06:13:13.065Z,20.93
2019-03-01T06:15:38.646Z,18.90
2019-03-01T06:17:47.500Z,19.03
2019-03-01T06:19:41.796Z,19.27
2019-03-01T06:21:39.950Z,17.47
2019-03-01T06:23:22.894Z,16.90
2019-03-01T06:25:03.142Z,14.63
2019-03-01T06:26:54.863Z,14.45
2019-03-01T06:29:01.712Z,12.43
2019-03-01T06:30:56.551Z,13.20
2019-03-01T06:32:54.647Z,12.80
2019-03-01T06:35:12.079Z,11.00
2019-03-01T06:37:08.352Z,13.95
2019-03-01T06:39:33.671Z,11.83
2019-03-01T06:41:42.552Z,10.90
2019-03-01T06:44:05.632Z,11.30
2019-03-01T06:46:24.528Z,12.27
2019-03-01T06:47:59.897Z,10.73
2019-03-01T06:49:53.316Z,11.23
2019-03-01T06:51:29.481Z,11.03
2019-03-01T06:53:04.855Z,11.27
2019-03-01T06:54:40.850Z,10.82
2019-03-01T06:56:16.827Z,11.83
2019-03-01T06:57:52.374Z,10.77
2019-03-01T06:59:28.116Z,11.83
2019-03-01T07:01:05.137Z,10.33
2019-03-01T07:02:45.200Z,10.35
2019-03-01T07:04:20.608Z,11.45
2019-03-01T07:06:03.148Z,9.25
2019-03-01T07:07:33.018Z,8.33
2019-03-01T07:09:08.620Z,7.57
2019-03-01T07:10:44.161Z,9.50
2019-03-01T07:12:19.536Z,8.38
2019-03-01T07:13:54.904Z,9.55
2019-03-01T07:15:30.272Z,8.63
2019-03-01T07:17:05.653Z,8.50
2019-03-01T07:18:41.025Z,7.00
2019-03-01T07:20:16.391Z,8.97
2019-03-01T07:21:51.772Z,6.42
2019-03-01T07:23:36.230Z,8.15
2019-03-01T07:25:06.211Z,8.63
2019-03-01T07:26:41.589Z,9.07
2019-03-01T07:28:16.972Z,9.70
2019-03-01T07:29:52.343Z,9.23
2019-03-01T07:31:27.740Z,8.75
2019-03-01T07:33:03.109Z,11.18
2019-03-01T07:34:38.476Z,7.37
2019-03-01T07:36:13.845Z,8.90
2019-03-01T07:37:49.223Z,8.33
2019-03-01T07:39:24.598Z,7.55
2019-03-01T07:40:59.961Z,9.93
2019-03-01T07:42:35.335Z,8.07
2019-03-01T07:44:11.512Z,8.95
2019-03-01T07:45:46.884Z,7.00
2019-03-01T07:47:22.264Z,6.60
2019-03-01T07:48:57.628Z,6.70
2019-03-01T07:50:32.996Z,6.37
2019-03-01T07:52:08.379Z,5.40
2019-03-01T07:53:43.747Z,5.47
2019-03-01T07:55:19.174Z,6.25
2019-03-01T07:56:54.548Z,6.78
2019-03-01T07:58:29.913Z,5.00
2019-03-01T08:00:16.755Z,6.97
2019-03-01T08:01:52.150Z,7.72
2019-03-01T08:03:27.497Z,6.23
2019-03-01T08:05:04.261Z,6.30
2019-03-01T08:06:41.537Z,7.07
2019-03-01T08:08:16.912Z,6.15
2019-03-01T08:09:54.114Z,6.93
2019-03-01T08:11:31.715Z,5.57
2019-03-01T08:13:06.678Z,6.10
2019-03-01T08:14:42.046Z,6.40
2019-03-01T08:16:20.196Z,8.23
2019-03-01T08:17:54.492Z,7.47
2019-03-01T08:19:29.868Z,9.03
2019-03-01T08:21:06.289Z,8.67
2019-03-01T08:22:48.511Z,8.37
2019-03-01T08:24:19.368Z,7.53
2019-03-01T08:25:55.558Z,8.23
2019-03-01T08:27:31.807Z,9.10
2019-03-01T08:29:07.507Z,9.27
2019-03-01T08:30:45.777Z,8.97
2019-03-01T08:32:19.948Z,9.35
2019-03-01T08:33:55.318Z,10.82
2019-03-01T08:35:32.167Z,9.93
2019-03-01T08:37:08.252Z,9.53
2019-03-01T08:38:43.585Z,11.17
2019-03-01T08:40:19.562Z,10.60
2019-03-01T08:42:00.270Z,8.90
2019-03-01T08:43:32.009Z,9.87
2019-03-01T08:45:11.891Z,11.07
2019-03-01T08:46:47.275Z,8.53
2019-03-01T08:48:22.647Z,8.63
2019-03-01T08:49:58.015Z,8.28
2019-03-01T08:51:33.392Z,9.07
2019-03-01T08:53:11.385Z,9.40
2019-03-01T08:54:45.892Z,8.47
2019-03-01T08:56:26.258Z,8.37
2019-03-01T08:58:02.533Z,8.10
2019-03-01T08:59:35.406Z,9.30
2019-03-01T09:01:22.150Z,9.03
2019-03-01T09:03:02.597Z,9.67
2019-03-01T09:04:38.231Z,8.67
2019-03-01T09:06:13.893Z,11.30
2019-03-01T09:07:49.268Z,9.70
2019-03-01T09:09:24.950Z,10.98
2019-03-01T09:11:00.400Z,11.17
2019-03-01T09:12:36.838Z,9.80
2019-03-01T09:14:12.512Z,10.50
2019-03-01T09:15:49.475Z,12.63
2019-03-01T09:17:24.980Z,9.08
2019-03-01T09:19:00.979Z,10.00
2019-03-01T09:20:38.619Z,9.97
2019-03-01T09:22:13.458Z,10.57
2019-03-01T09:23:52.106Z,10.73
2019-03-01T09:25:26.489Z,10.60
2019-03-01T09:27:02.110Z,10.97
2019-03-01T09:28:39.690Z,9.20
2019-03-01T09:30:23.821Z,10.07
2019-03-01T09:31:59.194Z,9.13
2019-03-01T09:33:34.592Z,11.07
2019-03-01T09:35:30.027Z,9.63
2019-03-01T09:37:06.400Z,9.27
2019-03-01T09:38:42.917Z,10.00
2019-03-01T09:40:19.331Z,10.13
2019-03-01T09:42:02.886Z,11.05
2019-03-01T09:43:32.062Z,10.37
2019-03-01T09:45:13.538Z,9.53
2019-03-01T09:46:47.940Z,9.28
2019-03-01T09:48:23.325Z,10.90
2019-03-01T09:50:00.148Z,9.58
2019-03-01T09:51:37.328Z,8.77
2019-03-01T09:53:12.708Z,9.80
2019-03-01T09:54:48.062Z,9.90
2019-03-01T09:56:24.383Z,11.38
2019-03-01T09:58:01.211Z,9.63
2019-03-01T09:59:36.588Z,10.00
2019-03-01T10:01:19.435Z,9.30
2019-03-01T10:02:54.812Z,9.50
2019-03-01T10:04:30.185Z,9.68
2019-03-01T10:06:05.547Z,9.80
2019-03-01T10:07:40.924Z,11.47
2019-03-01T10:09:16.302Z,9.30
2019-03-01T10:10:51.678Z,10.90
2019-03-01T10:12:27.043Z,10.28
2019-03-01T10:14:03.402Z,11.30
2019-03-01T10:15:38.777Z,10.60
2019-03-01T10:17:14.154Z,12.17
2019-03-01T10:18:49.541Z,12.07
2019-03-01T10:20:26.127Z,12.63
2019-03-01T10:22:01.576Z,11.00
2019-03-01T10:23:37.139Z,11.60
2019-03-01T10:25:16.633Z,12.50
2019-03-01T10:26:52.014Z,13.77
2019-03-01T10:28:27.407Z,12.40
2019-03-01T10:30:03.057Z,11.90
2019-03-01T10:31:38.711Z,12.90
2019-03-01T10:33:14.085Z,12.57
2019-03-01T10:34:49.479Z,14.20
2019-03-01T10:36:24.857Z,13.65
2019-03-01T10:38:00.299Z,15.18
2019-03-01T10:39:35.630Z,14.30
2019-03-01T10:41:11.010Z,14.47
2019-03-01T10:42:46.392Z,13.00
2019-03-01T10:44:21.783Z,12.87
2019-03-01T10:45:57.156Z,14.45
2019-03-01T10:47:32.537Z,13.70
2019-03-01T10:49:07.917Z,13.13
2019-03-01T10:50:43.290Z,14.33
2019-03-01T10:52:18.671Z,12.50
2019-03-01T10:53:54.054Z,11.93
2019-03-01T10:55:29.431Z,12.65
2019-03-01T10:57:04.805Z,13.38
2019-03-01T10:58:40.182Z,14.03
2019-03-01T11:00:19.813Z,13.27
2019-03-01T11:01:55.188Z,12.98
2019-03-01T11:03:30.565Z,12.85
2019-03-01T11:05:07.531Z,13.13
2019-03-01T11:06:42.901Z,11.70
2019-03-01T11:08:18.285Z,11.93
2019-03-01T11:09:53.673Z,12.23
2019-03-01T11:11:29.046Z,12.10
2019-03-01T11:13:06.163Z,13.58
2019-03-01T11:14:41.552Z,12.43
2019-03-01T11:16:16.984Z,13.43
2019-03-01T11:17:52.308Z,13.33
2019-03-01T11:19:27.698Z,12.23
2019-03-01T11:21:03.406Z,11.75
2019-03-01T11:22:38.789Z,11.70
2019-03-01T11:24:14.173Z,10.50
2019-03-01T11:25:49.838Z,12.00
2019-03-01T11:27:25.206Z,12.60
2019-03-01T11:29:00.613Z,13.77
2019-03-01T11:30:37.691Z,13.05
2019-03-01T11:32:13.076Z,13.00
2019-03-01T11:33:48.445Z,14.13
2019-03-01T11:35:23.829Z,11.77
2019-03-01T11:36:59.205Z,13.30
2019-03-01T11:38:34.590Z,12.88
2019-03-01T11:40:29.099Z,13.23
2019-03-01T11:42:04.472Z,12.53
2019-03-01T11:43:39.853Z,12.47
2019-03-01T11:45:15.576Z,14.73
2019-03-01T11:46:51.563Z,14.03
2019-03-01T11:48:26.941Z,13.48
2019-03-01T11:50:02.328Z,15.00
2019-03-01T11:51:37.876Z,14.03
2019-03-01T11:53:14.314Z,14.10
2019-03-01T11:54:50.013Z,14.13
2019-03-01T11:56:25.389Z,14.57
2019-03-01T11:58:00.760Z,14.13
2019-03-01T11:59:36.152Z,13.78
2019-03-01T12:01:17.162Z,13.83
2019-03-01T12:02:49.618Z,16.23
2019-03-01T12:04:25.005Z,14.17
2019-03-01T12:06:00.380Z,14.15
2019-03-01T12:07:35.754Z,15.70
2019-03-01T12:09:11.129Z,13.30
2019-03-01T12:10:46.850Z,14.43
2019-03-01T12:12:22.220Z,14.50
2019-03-01T12:13:57.603Z,13.45
2019-03-01T12:15:33.251Z,14.78
2019-03-01T12:17:08.993Z,12.95
2019-03-01T12:18:44.637Z,13.43
2019-03-01T12:20:24.825Z,14.03
2019-03-01T12:22:00.199Z,12.95
2019-03-01T12:23:35.689Z,14.50
2019-03-01T12:25:12.343Z,13.30
2019-03-01T12:26:47.724Z,14.33
2019-03-01T12:28:23.105Z,12.73
2019-03-01T12:29:58.486Z,14.70
2019-03-01T12:31:33.862Z,14.03
2019-03-01T12:33:09.240Z,13.62
2019-03-01T12:34:44.621Z,12.90
2019-03-01T12:36:20.000Z,13.43
2019-03-01T12:37:55.378Z,12.83
2019-03-01T12:39:30.767Z,12.68
2019-03-01T12:41:06.147Z,13.35
2019-03-01T12:42:41.825Z,14.27
2019-03-01T12:44:17.217Z,12.20
2019-03-01T12:45:52.599Z,12.57
2019-03-01T12:47:28.232Z,12.18
2019-03-01T12:49:03.620Z,12.43
2019-03-01T12:50:39.004Z,13.25
2019-03-01T12:52:14.385Z,12.60
2019-03-01T12:53:49.782Z,14.57
2019-03-01T12:55:32.054Z,12.47
2019-03-01T12:57:07.426Z,14.60
2019-03-01T12:58:42.801Z,16.37
2019-03-01T13:00:36.128Z,15.17
2019-03-01T13:02:11.493Z,16.40
2019-03-01T13:03:46.874Z,14.80
2019-03-01T13:05:25.646Z,15.37
2019-03-01T13:06:59.733Z,15.60
2019-03-01T13:08:35.109Z,16.70
2019-03-01T13:10:36.709Z,17.50
2019-03-01T13:12:10.482Z,17.00
2019-03-01T13:13:45.859Z,16.57
2019-03-01T13:15:21.241Z,14.73
2019-03-01T13:16:58.559Z,11.83
2019-03-01T13:18:33.699Z,12.23
2019-03-01T13:20:13.443Z,9.83
2019-03-01T13:21:50.276Z,9.07
2019-03-01T13:23:25.920Z,9.10
2019-03-01T13:25:01.284Z,9.13
2019-03-01T13:26:40.611Z,8.70
2019-03-01T13:28:14.991Z,9.40
2019-03-01T13:29:50.725Z,8.57
2019-03-01T13:31:26.111Z,9.03
2019-03-01T13:33:02.507Z,10.40
2019-03-01T13:34:38.546Z,9.53
2019-03-01T13:36:13.931Z,9.00
2019-03-01T13:37:51.919Z,8.67
2019-03-01T13:39:26.433Z,8.83
2019-03-01T13:41:02.177Z,8.43
2019-03-01T13:42:38.247Z,8.70
2019-03-01T13:44:13.612Z,8.63
2019-03-01T13:45:52.725Z,9.87
2019-03-01T13:47:26.057Z,11.40
2019-03-01T13:49:01.711Z,10.23
2019-03-01T13:50:38.329Z,10.90
2019-03-01T13:52:14.823Z,11.73
2019-03-01T13:53:50.424Z,10.67
2019-03-01T13:55:27.592Z,10.30
2019-03-01T13:57:03.064Z,11.30
2019-03-01T13:58:39.615Z,11.20
2019-03-01T14:00:22.308Z,12.00
2019-03-01T14:01:57.675Z,14.17
2019-03-01T14:03:33.058Z,14.20
2019-03-01T14:05:13.284Z,10.98
2019-03-01T14:06:47.417Z,12.17
2019-03-01T14:08:23.918Z,10.33
2019-03-01T14:10:00.824Z,10.35
2019-03-01T14:11:36.710Z,9.03
2019-03-01T14:13:14.539Z,8.30
2019-03-01T14:14:49.136Z,9.13
2019-03-01T14:16:24.521Z,8.47
2019-03-01T14:18:01.144Z,9.73
2019-03-01T14:19:39.062Z,7.75
2019-03-01T14:21:14.313Z,9.53
2019-03-01T14:22:49.850Z,8.00
2019-03-01T14:24:26.038Z,8.27
2019-03-01T14:26:02.304Z,8.28
2019-03-01T14:27:37.669Z,9.83
2019-03-01T14:29:16.040Z,10.13
2019-03-01T14:30:51.214Z,10.67
2019-03-01T14:32:26.589Z,11.80
2019-03-01T14:34:01.961Z,10.68
2019-03-01T14:35:37.344Z,10.03
2019-03-01T14:37:15.115Z,10.10
2019-03-01T14:38:49.780Z,9.70
2019-03-01T14:40:25.452Z,9.60
2019-03-01T14:42:00.831Z,10.13
2019-03-01T14:43:36.273Z,8.33
2019-03-01T14:45:18.264Z,8.93
2019-03-01T14:46:56.300Z,8.40
2019-03-01T14:48:30.971Z,7.90
2019-03-01T14:50:13.640Z,6.50
2019-03-01T14:51:49.016Z,8.37
2019-03-01T14:53:25.572Z,6.93
2019-03-01T14:55:00.945Z,6.10
2019-03-01T14:56:39.738Z,6.45
2019-03-01T14:58:39.303Z,6.43
2019-03-01T15:00:27.609Z,6.07
2019-03-01T15:02:18.779Z,7.37
2019-03-01T15:03:54.692Z,6.70
2019-03-01T15:05:31.158Z,6.30
2019-03-01T15:07:06.541Z,6.77
2019-03-01T15:08:44.146Z,6.53
2019-03-01T15:10:19.041Z,6.87
2019-03-01T15:11:54.426Z,6.50
2019-03-01T15:13:31.456Z,5.80
2019-03-01T15:15:11.745Z,6.33
2019-03-01T15:16:47.438Z,6.92
2019-03-01T15:18:25.024Z,6.63
2019-03-01T15:20:00.342Z,7.30
2019-03-01T15:21:37.559Z,7.80
2019-03-01T15:23:12.758Z,7.62
2019-03-01T15:24:48.123Z,6.77
2019-03-01T15:26:26.761Z,7.53
2019-03-01T15:28:00.569Z,7.27
2019-03-01T15:29:36.190Z,7.90
2019-03-01T15:31:12.542Z,9.40
2019-03-01T15:32:47.909Z,12.23
2019-03-01T15:34:23.970Z,10.70
2019-03-01T15:36:00.795Z,10.70
2019-03-01T15:37:36.240Z,14.43
2019-03-01T15:39:11.609Z,13.88
2019-03-01T15:40:47.067Z,20.47
2019-03-01T15:42:22.440Z,22.73
2019-03-01T15:43:58.239Z,24.10
2019-03-01T15:45:36.760Z,24.83
2019-03-01T15:47:10.768Z,25.27
2019-03-01T15:48:46.152Z,26.95
2019-03-01T15:50:23.666Z,26.30
2019-03-01T15:51:59.860Z,27.47
2019-03-01T15:53:35.236Z,28.27
2019-03-01T15:55:12.924Z,25.37
2019-03-01T15:56:48.359Z,28.77
2019-03-01T15:58:23.734Z,25.67
2019-03-01T15:59:59.681Z,35.13
2019-03-01T16:01:35.070Z,34.77
2019-03-01T16:03:10.813Z,33.37
2019-03-01T16:04:46.188Z,31.70
2019-03-01T16:06:22.381Z,31.97
2019-03-01T16:07:57.835Z,33.57
2019-03-01T16:09:34.195Z,36.38
2019-03-01T16:11:12.699Z,39.88
2019-03-01T16:12:46.659Z,40.20
2019-03-01T16:14:24.137Z,36.27
2019-03-01T16:16:00.084Z,38.63
2019-03-01T16:17:35.470Z,38.87
2019-03-01T16:19:11.109Z,36.23
2019-03-01T16:20:47.919Z,32.38
2019-03-01T16:22:23.317Z,38.30
2019-03-01T16:23:58.694Z,43.20
2019-03-01T16:25:34.068Z,39.63
2019-03-01T16:27:12.035Z,36.00
2019-03-01T16:28:47.956Z,37.90
2019-03-01T16:30:23.593Z,39.33
2019-03-01T16:31:59.295Z,40.07
2019-03-01T16:33:34.690Z,44.23
2019-03-01T16:35:16.702Z,42.33
2019-03-01T16:36:52.898Z,39.47
2019-03-01T16:38:28.354Z,45.03
2019-03-01T16:40:04.895Z,47.33
2019-03-01T16:41:42.907Z,43.57
2019-03-01T16:43:17.355Z,42.30
2019-03-01T16:44:52.744Z,51.13
2019-03-01T16:46:28.474Z,45.23
2019-03-01T16:48:05.284Z,44.50
2019-03-01T16:49:40.914Z,46.60
2019-03-01T16:51:18.737Z,45.73
2019-03-01T16:52:53.369Z,46.07
2019-03-01T16:54:28.747Z,57.53
2019-03-01T16:56:04.127Z,45.10
2019-03-01T16:57:39.518Z,44.00
2019-03-01T16:59:15.246Z,48.42
2019-03-01T17:00:53.370Z,47.47
2019-03-01T17:02:28.531Z,52.17
2019-03-01T17:04:04.220Z,45.93
2019-03-01T17:05:39.783Z,44.00
2019-03-01T17:07:15.130Z,48.93
2019-03-01T17:08:50.517Z,42.65
2019-03-01T17:10:26.495Z,45.73
2019-03-01T17:12:03.132Z,42.15
2019-03-01T17:13:38.507Z,45.03
2019-03-01T17:15:23.598Z,48.60
2019-03-01T17:16:59.609Z,44.10
2019-03-01T17:18:35.933Z,50.50
2019-03-01T17:20:12.220Z,50.40
2019-03-01T17:21:50.905Z,46.60
2019-03-01T17:23:24.669Z,47.70
2019-03-01T17:25:00.046Z,50.20
2019-03-01T17:26:35.417Z,52.73
2019-03-01T17:28:11.135Z,48.80
2019-03-01T17:29:46.512Z,51.10
2019-03-01T17:31:23.155Z,45.40
2019-03-01T17:32:58.977Z,43.10
2019-03-01T17:34:34.350Z,38.23
2019-03-01T17:36:12.981Z,32.87
2019-03-01T17:37:46.804Z,28.37
2019-03-01T17:39:22.178Z,30.15
2019-03-01T17:40:57.546Z,28.03
2019-03-01T17:42:32.931Z,28.70
2019-03-01T17:44:09.542Z,26.27
2019-03-01T17:45:44.971Z,24.03
2019-03-01T17:47:20.358Z,26.73
2019-03-01T17:48:57.351Z,24.47
2019-03-01T17:50:34.914Z,27.67
2019-03-01T17:52:10.301Z,27.22
2019-03-01T17:53:47.260Z,23.70
2019-03-01T17:55:30.170Z,21.95
2019-03-01T17:57:05.550Z,24.37
2019-03-01T17:58:40.928Z,21.40
2019-03-01T18:00:25.351Z,26.50
2019-03-01T18:02:01.783Z,22.73
2019-03-01T18:03:37.165Z,24.93
2019-03-01T18:05:13.475Z,22.40
2019-03-01T18:06:51.485Z,21.17
2019-03-01T18:08:26.289Z,19.47
2019-03-01T18:10:01.911Z,25.40
2019-03-01T18:11:40.610Z,22.37
2019-03-01T18:13:15.125Z,20.48
2019-03-01T18:14:50.481Z,21.50
2019-03-01T18:16:25.853Z,22.87
2019-03-01T18:18:01.235Z,23.23
2019-03-01T18:19:36.778Z,19.67
2019-03-01T18:21:13.147Z,20.67
2019-03-01T18:22:49.264Z,18.17
2019-03-01T18:24:24.646Z,18.23
2019-03-01T18:26:03.320Z,18.20
2019-03-01T18:27:37.245Z,18.27
2019-03-01T18:29:12.605Z,19.25
2019-03-01T18:30:47.985Z,17.53
2019-03-01T18:32:23.372Z,18.83
2019-03-01T18:33:58.750Z,18.37
2019-03-01T18:35:34.141Z,18.07
2019-03-01T18:37:19.200Z,18.87
2019-03-01T18:38:46.847Z,17.10
2019-03-01T18:40:22.459Z,19.35
2019-03-01T18:41:59.302Z,16.90
2019-03-01T18:43:35.235Z,18.63
2019-03-01T18:45:19.156Z,15.93
2019-03-01T18:46:55.375Z,15.87
2019-03-01T18:48:33.570Z,18.53
2019-03-01T18:50:27.736Z,16.40
2019-03-01T18:52:02.793Z,19.30
2019-03-01T18:53:38.166Z,14.17
2019-03-01T18:55:16.944Z,15.36
2019-03-01T18:56:50.620Z,17.15
2019-03-01T18:58:26.001Z,17.50
2019-03-01T19:00:01.623Z,20.33
2019-03-01T19:01:38.618Z,18.67
2019-03-01T19:03:13.999Z,17.98
2019-03-01T19:04:49.375Z,20.10
2019-03-01T19:06:24.743Z,16.40
2019-03-01T19:08:00.979Z,21.00
2019-03-01T19:09:38.248Z,19.07
2019-03-01T19:11:13.622Z,17.27
2019-03-01T19:12:49.559Z,17.87
2019-03-01T19:14:24.957Z,16.70
2019-03-01T19:16:00.585Z,14.23
2019-03-01T19:17:40.673Z,13.53
2019-03-01T19:19:14.323Z,16.02
2019-03-01T19:20:54.353Z,16.37
2019-03-01T19:22:29.758Z,16.27
2019-03-01T19:24:08.214Z,18.50
2019-03-01T19:25:42.668Z,19.53
2019-03-01T19:27:19.275Z,17.35
2019-03-01T19:28:54.649Z,17.73
2019-03-01T19:30:30.021Z,15.13
2019-03-01T19:32:05.892Z,17.87
2019-03-01T19:33:41.721Z,20.17
2019-03-01T19:35:17.189Z,17.97
2019-03-01T19:36:52.578Z,16.27
2019-03-01T19:38:28.094Z,17.13
2019-03-01T19:40:12.257Z,19.77
2019-03-01T19:41:47.639Z,21.60
2019-03-01T19:43:23.032Z,19.40
2019-03-01T19:45:00.817Z,19.80
2019-03-01T19:46:35.478Z,19.10
2019-03-01T19:48:10.861Z,20.90
2019-03-01T19:49:48.655Z,19.33
2019-03-01T19:51:24.810Z,19.50
2019-03-01T19:53:01.410Z,20.27
2019-03-01T19:54:36.788Z,16.30
2019-03-01T19:56:12.342Z,20.00
2019-03-01T19:57:48.591Z,19.03
2019-03-01T19:59:23.976Z,16.70
2019-03-01T20:00:59.346Z,15.00
2019-03-01T20:02:34.720Z,15.13
2019-03-01T20:04:10.177Z,14.27
2019-03-01T20:05:45.546Z,14.67
2019-03-01T20:07:20.921Z,17.02
2019-03-01T20:08:57.274Z,17.20
2019-03-01T20:10:32.974Z,16.53
2019-03-01T20:12:08.364Z,16.73
2019-03-01T20:13:44.056Z,15.50
2019-03-01T20:15:24.958Z,17.53
2019-03-01T20:17:00.400Z,18.20
2019-03-01T20:18:36.037Z,19.17
2019-03-01T20:20:17.557Z,17.67
2019-03-01T20:21:52.932Z,16.40
2019-03-01T20:23:29.679Z,14.60
2019-03-01T20:25:12.780Z,17.13
2019-03-01T20:26:47.433Z,16.40
2019-03-01T20:28:22.801Z,16.50
2019-03-01T20:29:58.165Z,16.10
2019-03-01T20:31:36.825Z,15.47
2019-03-01T20:33:10.826Z,15.30
2019-03-01T20:34:46.189Z,15.07
2019-03-01T20:36:21.546Z,16.53
2019-03-01T20:38:00.395Z,15.13
2019-03-01T20:39:34.140Z,15.13
2019-03-01T20:41:09.497Z,15.90
2019-03-01T20:42:45.295Z,14.53
2019-03-01T20:44:23.452Z,16.30
2019-03-01T20:45:59.062Z,15.90
2019-03-01T20:47:34.418Z,14.37
2019-03-01T20:49:09.785Z,17.47
2019-03-01T20:50:47.691Z,13.13
2019-03-01T20:52:22.413Z,13.67
2019-03-01T20:53:57.794Z,12.73
2019-03-01T20:55:36.713Z,14.87
2019-03-01T20:57:10.202Z,16.67
2019-03-01T20:58:45.566Z,15.23
2019-03-01T21:00:27.127Z,14.57
2019-03-01T21:02:02.559Z,16.43
2019-03-01T21:03:37.930Z,15.77
2019-03-01T21:05:15.638Z,15.93
2019-03-01T21:06:51.003Z,16.90